Stockham, Nebraska
Current Conditions -  °F | °C
As of 9:55 AM on Friday 19 Dec 2014 (Local Time) from KAUH Reporting Station
Overcast Overcast  
Wind Chill: 25°   Ceiling: 900
Heat Index: 32°   Visibility: 10mi
Dew Point: 30°   Wind: 8mph
Humidity: 91%   Direction: 220°SW
Pressure: 30.17"   Gusts: NA
Location:  40.8232°N, 98.0482°W
Report Text: KAUH 191555Z AUTO 22007KT 10SM OVC009 00/M01 A3017 RMK AO2 T00001013
Loading
Personal Weather Stations






























Interactive Weather Map New forecast layout! Learn more

10-Day Weather Forecast

Advertisements
Track Severe Weather on mobile